Terminal Aerodrome Forecast
Issued by NWS

Home | Current Version | Previous Version | Graphics & Text | Print | Product List | Glossary On
Versions: 1 2 3 4 5 6 7 8 9 10 11 12 13 14 15 16 17 18
000
FTUS43 KBIS 172300
TAFJMS
TAF
KJMS 172332Z 1800/1824 13005KT P6SM SKC
     FM180600 14006KT P6SM SCT005
     FM181400 17008KT P6SM SCT005 BKN012=

USA.gov is the U.S. government's official web portal to all federal, state and local government web resources and services.